| time (UTC) | temp C | wind direction | speed KPH | gust KPH | rain 1hr cm | rain 24hr cm | rain mn cm | humidity % | barometer mb |
| 20260906212734 | 33 | 86 | 3.2 | 16.1 | 0.00 | 0.00 | 0.00 | 37 | 1015.7 |
| 20260906212230 | 33 | 99 | 3.2 | 11.3 | 0.00 | 0.00 | 0.00 | 38 | 1015.9 |
| 20260906211730 | 32 | 127 | 9.7 | 16.1 | 0.00 | 0.00 | 0.00 | 39 | 1015.9 |
| 20260906211225 | 32 | 117 | 12.9 | 17.7 | 0.00 | 0.00 | 0.00 | 39 | 1015.9 |
| 20260906210721 | 32 | 81 | 11.3 | 14.5 | 0.00 | 0.00 | 0.00 | 40 | 1016.1 |
| 20260906210221 | 32 | 165 | 8.0 | 14.5 | 0.00 | 0.00 | 0.00 | 41 | 1016.1 |
| 20260906205716 | 32 | 98 | 6.4 | 12.9 | 0.00 | 0.00 | 0.00 | 42 | 1015.9 |
| 20260906205213 | 32 | 97 | 9.7 | 17.7 | 0.00 | 0.00 | 0.00 | 41 | 1016.1 |
| 20260906204713 | 32 | 85 | 12.9 | 17.7 | 0.00 | 0.00 | 0.00 | 40 | 1016.2 |
| 20260906204212 | 32 | 89 | 9.7 | 16.1 | 0.00 | 0.00 | 0.00 | 39 | 1016.1 |
| 20260906203712 | 32 | 100 | 16.1 | 22.5 | 0.00 | 0.00 | 0.00 | 40 | 1016.4 |
| 20260906203207 | 33 | 106 | 11.3 | 17.7 | 0.00 | 0.00 | 0.00 | 39 | 1016.4 |
| 20260906202704 | 32 | 95 | 4.8 | 12.9 | 0.00 | 0.00 | 0.00 | 38 | 1016.3 |
| 20260906202203 | 33 | 108 | 6.4 | 12.9 | 0.00 | 0.00 | 0.00 | 38 | 1016.4 |
| 20260906201658 | 33 | 61 | 11.3 | 17.7 | 0.00 | 0.00 | 0.00 | 39 | 1016.5 |
| 20260906201157 | 33 | 124 | 14.5 | 17.7 | 0.00 | 0.00 | 0.00 | 38 | 1016.3 |
| 20260906200654 | 33 | 79 | 14.5 | 17.7 | 0.00 | 0.00 | 0.00 | 37 | 1016.4 |
| 20260906200149 | 32 | 81 | 6.4 | 22.5 | 0.00 | 0.00 | 0.00 | 39 | 1016.5 |
| 20260906195650 | 33 | 43 | 1.6 | 9.7 | 0.00 | 0.00 | 0.00 | 37 | 1016.5 |
| 20260906195146 | 33 | 45 | 6.4 | 22.5 | 0.00 | 0.00 | 0.00 | 38 | 1016.8 |
| 20260906194642 | 33 | 72 | 16.1 | 17.7 | 0.00 | 0.00 | 0.00 | 38 | 1016.8 |
| 20260906194137 | 32 | 110 | 6.4 | 12.9 | 0.00 | 0.00 | 0.00 | 39 | 1017.0 |
| 20260906193632 | 33 | 86 | 6.4 | 9.7 | 0.00 | 0.00 | 0.00 | 38 | 1016.9 |
| 20260906193127 | 32 | 100 | 8.0 | 11.3 | 0.00 | 0.00 | 0.00 | 40 | 1017.1 |
| 20260906192623 | 32 | 75 | 12.9 | 17.7 | 0.00 | 0.00 | 0.00 | 40 | 1017.0 |
| 20260906192122 | 32 | 85 | 9.7 | 14.5 | 0.00 | 0.00 | 0.00 | 40 | 1017.0 |
| 20260906191617 | 32 | 115 | 9.7 | 17.7 | 0.00 | 0.00 | 0.00 | 41 | 1017.1 |
| 20260906191117 | 32 | 73 | 9.7 | 20.9 | 0.00 | 0.00 | 0.00 | 41 | 1017.5 |
| 20260906190616 | 31 | 142 | 12.9 | 14.5 | 0.00 | 0.00 | 0.00 | 42 | 1017.3 |
| 20260906190111 | 32 | 155 | 6.4 | 16.1 | 0.00 | 0.00 | 0.00 | 41 | 1017.5 |
| 20260906185610 | 31 | 212 | 3.2 | 6.4 | 0.00 | 0.00 | 0.00 | 43 | 1017.7 |
| 20260906185109 | 32 | 83 | 6.4 | 9.7 | 0.00 | 0.00 | 0.00 | 40 | 1017.9 |
| 20260906184604 | 31 | 65 | 0.0 | 3.2 | 0.00 | 0.00 | 0.00 | 41 | 1018.0 |
| 20260906184100 | 31 | 98 | 3.2 | 6.4 | 0.00 | 0.00 | 0.00 | 43 | 1018.0 |
| 20260906183555 | 32 | 83 | 14.5 | 16.1 | 0.00 | 0.00 | 0.00 | 42 | 1018.2 |
| 20260906183051 | 31 | 9 | 6.4 | 6.4 | 0.00 | 0.00 | 0.00 | 42 | 1018.3 |
| 20260906182546 | 31 | 74 | 3.2 | 11.3 | 0.00 | 0.00 | 0.00 | 42 | 1018.4 |
| 20260906182042 | 31 | 156 | 1.6 | 12.9 | 0.00 | 0.00 | 0.00 | 43 | 1018.3 |
| 20260906181537 | 31 | 59 | 9.7 | 14.5 | 0.00 | 0.00 | 0.00 | 42 | 1018.5 |
| 20260906181033 | 31 | 64 | 0.0 | 4.8 | 0.00 | 0.00 | 0.00 | 44 | 1018.6 |
| 20260906180528 | 31 | 34 | 3.2 | 4.8 | 0.00 | 0.00 | 0.00 | 42 | 1018.7 |
| 20260906180027 | 31 | 217 | 1.6 | 9.7 | 0.00 | 0.00 | 0.00 | 44 | 1018.9 |
| 20260906175526 | 31 | 70 | 4.8 | 9.7 | 0.00 | 0.00 | 0.00 | 43 | 1019.2 |
| 20260906175026 | 32 | 21 | 0.0 | 4.8 | 0.00 | 0.00 | 0.00 | 41 | 1019.3 |
| 20260906174524 | 31 | 138 | 1.6 | 4.8 | 0.00 | 0.00 | 0.00 | 42 | 1019.0 |
| 20260906174019 | 30 | 247 | 6.4 | 6.4 | 0.00 | 0.00 | 0.00 | 45 | 1019.3 |
| 20260906173514 | 30 | 85 | 4.8 | 9.7 | 0.00 | 0.00 | 0.00 | 44 | 1019.3 |
| 20260906173010 | 30 | 71 | 9.7 | 11.3 | 0.00 | 0.00 | 0.00 | 44 | 1019.3 |
| 20260906172505 | 30 | 67 | 0.0 | 4.8 | 0.00 | 0.00 | 0.00 | 45 | 1019.4 |
| 20260906172000 | 29 | 100 | 6.4 | 14.5 | 0.00 | 0.00 | 0.00 | 46 | 1019.6 |
| 20260906171454 | 30 | 74 | 4.8 | 9.7 | 0.00 | 0.00 | 0.00 | 45 | 1019.6 |
| 20260906170950 | 29 | 12 | 3.2 | 11.3 | 0.00 | 0.00 | 0.00 | 44 | 1019.6 |
| 20260906170446 | 29 | 345 | 0.0 | 3.2 | 0.00 | 0.00 | 0.00 | 47 | 1019.8 |
| 20260906165943 | 29 | 1 | 3.2 | 3.2 | 0.00 | 0.00 | 0.00 | 46 | 1019.6 |
| 20260906165442 | 28 | 327 | 1.6 | 3.2 | 0.00 | 0.00 | 0.00 | 48 | 1019.4 |
| 20260906164937 | 28 | 40 | 1.6 | 4.8 | 0.00 | 0.00 | 0.00 | 46 | 1020.0 |
| 20260906164436 | 28 | 350 | 1.6 | 17.7 | 0.00 | 0.00 | 0.00 | 47 | 1019.7 |
| 20260906163933 | 28 | 76 | 4.8 | 6.4 | 0.00 | 0.00 | 0.00 | 46 | 1019.8 |
| 20260906163428 | 28 | 7 | 3.2 | 9.7 | 0.00 | 0.00 | 0.00 | 47 | 1019.8 |
| 20260906162926 | 28 | 15 | 3.2 | 6.4 | 0.00 | 0.00 | 0.00 | 47 | 1019.9 |
| 20260906162425 | 28 | 71 | 3.2 | 4.8 | 0.00 | 0.00 | 0.00 | 47 | 1019.8 |
| 20260906161920 | 28 | 159 | 0.0 | 4.8 | 0.00 | 0.00 | 0.00 | 48 | 1019.8 |
| 20260906161420 | 27 | 341 | 1.6 | 9.7 | 0.00 | 0.00 | 0.00 | 50 | 1020.0 |
| 20260906160919 | 27 | 346 | 1.6 | 6.4 | 0.00 | 0.00 | 0.00 | 52 | 1019.9 |
| 20260906160412 | 27 | 48 | 3.2 | 4.8 | 0.00 | 0.00 | 0.00 | 50 | 1019.8 |
| 20260906155911 | 28 | 354 | 3.2 | 6.4 | 0.00 | 0.00 | 0.00 | 50 | 1019.7 |
| 20260906155404 | 27 | 145 | 0.0 | 4.8 | 0.00 | 0.00 | 0.00 | 53 | 1020.0 |
| 20260906154901 | 27 | 33 | 1.6 | 9.7 | 0.00 | 0.00 | 0.00 | 52 | 1019.7 |
| 20260906154355 | 26 | 95 | 1.6 | 4.8 | 0.00 | 0.00 | 0.00 | 53 | 1019.9 |
| 20260906153854 | 26 | 116 | 1.6 | 6.4 | 0.00 | 0.00 | 0.00 | 53 | 1019.9 |
| 20260906153353 | 26 | 80 | 6.4 | 6.4 | 0.00 | 0.00 | 0.00 | 55 | 1019.7 |
| 20260906152848 | 26 | 36 | 3.2 | 4.8 | 0.00 | 0.00 | 0.00 | 54 | 1019.9 |
| 20260906152349 | 26 | 70 | 0.0 | 4.8 | 0.00 | 0.00 | 0.00 | 54 | 1019.9 |
| 20260906151848 | 25 | 69 | 3.2 | 6.4 | 0.00 | 0.00 | 0.00 | 56 | 1019.9 |
| 20260906151344 | 26 | 70 | 6.4 | 12.9 | 0.00 | 0.00 | 0.00 | 55 | 1019.8 |
| 20260906150839 | 26 | 59 | 3.2 | 4.8 | 0.00 | 0.00 | 0.00 | 55 | 1019.9 |
| 20260906150335 | 25 | 79 | 8.0 | 11.3 | 0.00 | 0.00 | 0.00 | 56 | 1019.8 |
| 20260906145834 | 25 | 61 | 3.2 | 6.4 | 0.00 | 0.00 | 0.00 | 56 | 1019.9 |
| 20260906145332 | 25 | 70 | 8.0 | 11.3 | 0.00 | 0.00 | 0.00 | 56 | 1019.8 |
| 20260906144828 | 25 | 46 | 4.8 | 11.3 | 0.00 | 0.00 | 0.00 | 57 | 1019.7 |
| 20260906144323 | 25 | 77 | 4.8 | 9.7 | 0.00 | 0.00 | 0.00 | 56 | 1019.8 |
| 20260906143822 | 25 | 13 | 3.2 | 6.4 | 0.00 | 0.00 | 0.00 | 57 | 1019.7 |
| 20260906143319 | 25 | 13 | 3.2 | 6.4 | 0.00 | 0.00 | 0.00 | 56 | 1019.7 |
| 20260906142814 | 24 | 65 | 3.2 | 4.8 | 0.00 | 0.00 | 0.00 | 57 | 1019.7 |
| 20260906142309 | 24 | 16 | 6.4 | 9.7 | 0.00 | 0.00 | 0.00 | 58 | 1019.8 |
| 20260906141808 | 23 | 14 | 6.4 | 9.7 | 0.00 | 0.00 | 0.00 | 59 | 1019.8 |
| 20260906141303 | 23 | 346 | 3.2 | 4.8 | 0.00 | 0.00 | 0.00 | 60 | 1019.6 |
| 20260906140802 | 22 | 6 | 4.8 | 6.4 | 0.00 | 0.00 | 0.00 | 61 | 1019.6 |
| 20260906140257 | 22 | 327 | 3.2 | 3.2 | 0.00 | 0.00 | 0.00 | 61 | 1019.6 |
| 20260906135755 | 22 | 358 | 3.2 | 4.8 | 0.00 | 0.00 | 0.00 | 61 | 1019.6 |
| 20260906135250 | 22 | 353 | 3.2 | 9.7 | 0.00 | 0.00 | 0.00 | 61 | 1019.6 |
| 20260906134745 | 22 | 359 | 3.2 | 4.8 | 0.00 | 0.00 | 0.00 | 62 | 1019.6 |
| 20260906134241 | 22 | 355 | 3.2 | 6.4 | 0.00 | 0.00 | 0.00 | 62 | 1019.3 |
| 20260906133736 | 22 | 16 | 3.2 | 3.2 | 0.00 | 0.00 | 0.00 | 63 | 1019.3 |
| 20260906133231 | 21 | 346 | 4.8 | 6.4 | 0.00 | 0.00 | 0.00 | 64 | 1019.3 |
| 20260906132726 | 21 | 7 | 1.6 | 3.2 | 0.00 | 0.00 | 0.00 | 65 | 1019.3 |
| 20260906132222 | 21 | 354 | 1.6 | 1.6 | 0.00 | 0.00 | 0.00 | 66 | 1019.0 |
| 20260906131718 | 21 | 9 | 1.6 | 3.2 | 0.00 | 0.00 | 0.00 | 66 | 1019.0 |
| 20260906131212 | 21 | 9 | 6.4 | 9.7 | 0.00 | 0.00 | 0.00 | 65 | 1018.9 |
| 20260906130708 | 21 | 4 | 1.6 | 3.2 | 0.00 | 0.00 | 0.00 | 65 | 1018.6 |
| 20260906130203 | 21 | 321 | 1.6 | 3.2 | 0.00 | 0.00 | 0.00 | 65 | 1018.7 |
| 20260906125701 | 20 | 323 | 3.2 | 4.8 | 0.00 | 0.00 | 0.00 | 67 | 1018.9 |
| 20260906125200 | 20 | 316 | 1.6 | 3.2 | 0.00 | 0.00 | 0.00 | 67 | 1018.7 |
| 20260906124655 | 20 | 337 | 3.2 | 3.2 | 0.00 | 0.00 | 0.00 | 68 | 1018.6 |
| 20260906124150 | 20 | 348 | 3.2 | 3.2 | 0.00 | 0.00 | 0.00 | 68 | 1018.5 |
| 20260906123649 | 20 | 301 | 1.6 | 3.2 | 0.00 | 0.00 | 0.00 | 68 | 1018.4 |
| 20260906123145 | 20 | 339 | 1.6 | 4.8 | 0.00 | 0.00 | 0.00 | 68 | 1018.4 |
| 20260906122644 | 20 | 333 | 1.6 | 3.2 | 0.00 | 0.00 | 0.00 | 68 | 1018.7 |
| 20260906122139 | 20 | 311 | 1.6 | 3.2 | 0.00 | 0.00 | 0.00 | 67 | 1018.4 |
| 20260906121636 | 20 | 359 | 1.6 | 4.8 | 0.00 | 0.00 | 0.00 | 67 | 1018.2 |
| 20260906121132 | 20 | 308 | 1.6 | 4.8 | 0.00 | 0.00 | 0.00 | 67 | 1018.3 |
| 20260906120627 | 20 | 325 | 3.2 | 3.2 | 0.00 | 0.00 | 0.00 | 67 | 1018.0 |
| 20260906120125 | 20 | 321 | 1.6 | 3.2 | 0.00 | 0.00 | 0.00 | 67 | 1018.3 |
| 20260906115625 | 20 | 315 | 3.2 | 3.2 | 0.00 | 0.00 | 0.00 | 66 | 1018.3 |
| 20260906115121 | 21 | 332 | 1.6 | 4.8 | 0.00 | 0.00 | 0.00 | 66 | 1018.0 |
| 20260906114619 | 20 | 346 | 3.2 | 4.8 | 0.00 | 0.00 | 0.00 | 66 | 1018.0 |
| 20260906114115 | 20 | 328 | 1.6 | 1.6 | 0.00 | 0.00 | 0.00 | 68 | 1018.3 |
| 20260906113614 | 20 | 300 | 1.6 | 3.2 | 0.00 | 0.00 | 0.00 | 68 | 1018.2 |
| 20260906113109 | 20 | 326 | 0.0 | 1.6 | 0.00 | 0.00 | 0.00 | 68 | 1018.3 |
| 20260906112609 | 20 | 332 | 1.6 | 3.2 | 0.00 | 0.00 | 0.00 | 67 | 1018.3 |
| 20260906112106 | 20 | 280 | 0.0 | 3.2 | 0.00 | 0.00 | 0.00 | 67 | 1018.2 |
| 20260906111605 | 20 | 355 | 1.6 | 3.2 | 0.00 | 0.00 | 0.00 | 68 | 1017.9 |
| 20260906111100 | 20 | 311 | 1.6 | 3.2 | 0.00 | 0.00 | 0.00 | 68 | 1018.3 |
| 20260906110600 | 20 | 305 | 1.6 | 3.2 | 0.00 | 0.00 | 0.00 | 68 | 1017.9 |
| 20260906110100 | 20 | 299 | 1.6 | 1.6 | 0.00 | 0.00 | 0.00 | 68 | 1018.3 |
| 20260906105554 | 20 | 279 | 1.6 | 3.2 | 0.00 | 0.00 | 0.00 | 68 | 1018.0 |
| 20260906105051 | 20 | 302 | 1.6 | 3.2 | 0.00 | 0.00 | 0.00 | 68 | 1018.0 |
| 20260906104549 | 20 | 321 | 1.6 | 3.2 | 0.00 | 0.00 | 0.00 | 67 | 1018.3 |
| 20260906104044 | 21 | 297 | 0.0 | 0.0 | 0.00 | 0.00 | 0.00 | 67 | 1018.2 |
| 20260906103542 | 21 | 333 | 0.0 | 1.6 | 0.00 | 0.00 | 0.00 | 67 | 1018.2 |
| 20260906103037 | 21 | 311 | 0.0 | 3.2 | 0.00 | 0.00 | 0.00 | 67 | 1017.9 |
| 20260906102538 | 21 | 326 | 1.6 | 3.2 | 0.00 | 0.00 | 0.00 | 67 | 1018.4 |
| 20260906102033 | 21 | 280 | 0.0 | 6.4 | 0.00 | 0.00 | 0.00 | 67 | 1018.0 |
| 20260906101533 | 20 | 306 | 1.6 | 3.2 | 0.00 | 0.00 | 0.00 | 67 | 1018.2 |
| 20260906101027 | 21 | 304 | 1.6 | 3.2 | 0.00 | 0.00 | 0.00 | 67 | 1018.5 |
| 20260906100524 | 20 | 291 | 1.6 | 3.2 | 0.00 | 0.00 | 0.00 | 67 | 1018.4 |
| 20260906100023 | 20 | 296 | 0.0 | 1.6 | 0.00 | 0.00 | 0.00 | 68 | 1018.3 |
| 20260906095518 | 20 | 346 | 1.6 | 3.2 | 0.00 | 0.00 | 0.00 | 68 | 1018.3 |
| 20260906095014 | 20 | 287 | 3.2 | 3.2 | 0.00 | 0.00 | 0.00 | 68 | 1018.2 |
| 20260906094512 | 20 | 318 | 1.6 | 3.2 | 0.00 | 0.00 | 0.00 | 68 | 1018.3 |
| 20260906094009 | 20 | 326 | 1.6 | 4.8 | 0.00 | 0.00 | 0.00 | 68 | 1017.9 |
| 20260906093504 | 20 | 321 | 1.6 | 3.2 | 0.00 | 0.00 | 0.00 | 68 | 1017.9 |
| 20260906092959 | 20 | 328 | 3.2 | 3.2 | 0.00 | 0.00 | 0.00 | 68 | 1017.9 |
| 20260906092459 | 20 | 296 | 1.6 | 4.8 | 0.00 | 0.00 | 0.00 | 68 | 1017.9 |
| 20260906091954 | 20 | 347 | 4.8 | 9.7 | 0.00 | 0.00 | 0.00 | 68 | 1018.2 |
| 20260906091450 | 20 | 341 | 3.2 | 3.2 | 0.00 | 0.00 | 0.00 | 69 | 1017.9 |
| 20260906090947 | 20 | 345 | 1.6 | 3.2 | 0.00 | 0.00 | 0.00 | 69 | 1017.9 |
| 20260906090441 | 20 | 336 | 3.2 | 4.8 | 0.00 | 0.00 | 0.00 | 69 | 1018.0 |
| 20260906085941 | 20 | 338 | 1.6 | 3.2 | 0.00 | 0.00 | 0.00 | 69 | 1018.0 |
| 20260906085440 | 20 | 298 | 1.6 | 3.2 | 0.00 | 0.00 | 0.00 | 68 | 1018.2 |
| 20260906084940 | 20 | 314 | 1.6 | 3.2 | 0.00 | 0.00 | 0.00 | 68 | 1017.9 |
| 20260906084435 | 20 | 335 | 1.6 | 3.2 | 0.00 | 0.00 | 0.00 | 68 | 1017.8 |
| 20260906083934 | 20 | 314 | 4.8 | 9.7 | 0.00 | 0.00 | 0.00 | 68 | 1018.0 |
| 20260906083430 | 20 | 328 | 3.2 | 4.8 | 0.00 | 0.00 | 0.00 | 67 | 1018.2 |
| 20260906082929 | 20 | 336 | 4.8 | 9.7 | 0.00 | 0.00 | 0.00 | 67 | 1018.0 |
| 20260906082424 | 20 | 334 | 3.2 | 6.4 | 0.00 | 0.00 | 0.00 | 67 | 1018.3 |
| 20260906081920 | 20 | 305 | 3.2 | 4.8 | 0.00 | 0.00 | 0.00 | 67 | 1018.0 |
| 20260906081415 | 20 | 20 | 4.8 | 9.7 | 0.00 | 0.00 | 0.00 | 66 | 1018.2 |
| 20260906080911 | 20 | 7 | 6.4 | 12.9 | 0.00 | 0.00 | 0.00 | 66 | 1018.2 |
| 20260906080408 | 20 | 356 | 6.4 | 11.3 | 0.00 | 0.00 | 0.00 | 65 | 1018.0 |
| 20260906075907 | 21 | 296 | 4.8 | 9.7 | 0.00 | 0.00 | 0.00 | 65 | 1017.8 |
| 20260906075402 | 21 | 327 | 4.8 | 11.3 | 0.00 | 0.00 | 0.00 | 65 | 1017.9 |
| 20260906074857 | 21 | 355 | 3.2 | 4.8 | 0.00 | 0.00 | 0.00 | 64 | 1017.6 |
| 20260906074356 | 21 | 17 | 1.6 | 6.4 | 0.00 | 0.00 | 0.00 | 64 | 1017.6 |
| 20260906073855 | 20 | 348 | 3.2 | 4.8 | 0.00 | 0.00 | 0.00 | 64 | 1017.7 |
| 20260906073350 | 20 | 328 | 3.2 | 4.8 | 0.00 | 0.00 | 0.00 | 65 | 1017.5 |
| 20260906072847 | 20 | 3 | 6.4 | 9.7 | 0.00 | 0.00 | 0.00 | 64 | 1017.6 |
| 20260906072342 | 21 | 313 | 3.2 | 4.8 | 0.00 | 0.00 | 0.00 | 63 | 1017.6 |
| 20260906071839 | 21 | 348 | 3.2 | 4.8 | 0.00 | 0.00 | 0.00 | 63 | 1017.3 |
| 20260906071339 | 21 | 4 | 3.2 | 6.4 | 0.00 | 0.00 | 0.00 | 62 | 1017.6 |
| 20260906070836 | 21 | 346 | 3.2 | 4.8 | 0.00 | 0.00 | 0.00 | 61 | 1017.3 |
| 20260906070331 | 21 | 294 | 3.2 | 4.8 | 0.00 | 0.00 | 0.00 | 60 | 1017.5 |
| 20260906065827 | 21 | 359 | 3.2 | 4.8 | 0.00 | 0.00 | 0.00 | 60 | 1017.3 |
| 20260906065321 | 22 | 331 | 3.2 | 6.4 | 0.00 | 0.00 | 0.00 | 59 | 1017.6 |
| 20260906064817 | 22 | 330 | 3.2 | 4.8 | 0.00 | 0.00 | 0.00 | 59 | 1017.5 |
| 20260906064313 | 22 | 0 | 3.2 | 4.8 | 0.00 | 0.00 | 0.00 | 59 | 1017.6 |
| 20260906063812 | 22 | 325 | 4.8 | 6.4 | 0.00 | 0.00 | 0.00 | 59 | 1017.5 |
| 20260906063308 | 22 | 321 | 3.2 | 4.8 | 0.00 | 0.00 | 0.00 | 58 | 1017.3 |
| 20260906062803 | 22 | 318 | 1.6 | 3.2 | 0.00 | 0.00 | 0.00 | 58 | 1017.5 |
| 20260906062305 | 22 | 297 | 3.2 | 4.8 | 0.00 | 0.00 | 0.00 | 58 | 1017.7 |
| 20260906061758 | 22 | 350 | 1.6 | 4.8 | 0.00 | 0.00 | 0.00 | 58 | 1017.6 |
| 20260906061255 | 22 | 317 | 1.6 | 3.2 | 0.00 | 0.00 | 0.00 | 58 | 1017.7 |
| 20260906060755 | 22 | 7 | 3.2 | 6.4 | 0.00 | 0.00 | 0.00 | 57 | 1017.7 |
| 20260906060253 | 22 | 345 | 1.6 | 3.2 | 0.00 | 0.00 | 0.00 | 56 | 1017.6 |
| 20260906055748 | 22 | 335 | 1.6 | 3.2 | 0.00 | 0.00 | 0.00 | 56 | 1017.7 |
| 20260906055243 | 22 | 318 | 1.6 | 3.2 | 0.00 | 0.00 | 0.00 | 56 | 1017.7 |
| 20260906054738 | 22 | 256 | 3.2 | 4.8 | 0.00 | 0.00 | 0.00 | 56 | 1017.6 |
| 20260906054234 | 22 | 331 | 0.0 | 3.2 | 0.00 | 0.00 | 0.00 | 56 | 1017.9 |
| 20260906053730 | 22 | 344 | 1.6 | 4.8 | 0.00 | 0.00 | 0.00 | 55 | 1017.7 |
| 20260906053226 | 23 | 13 | 3.2 | 4.8 | 0.00 | 0.00 | 0.00 | 54 | 1017.8 |
| 20260906052721 | 22 | 283 | 1.6 | 3.2 | 0.00 | 0.00 | 0.00 | 55 | 1017.7 |
| 20260906052217 | 22 | 312 | 1.6 | 1.6 | 0.00 | 0.00 | 0.00 | 55 | 1017.8 |
| 20260906051714 | 23 | 10 | 3.2 | 3.2 | 0.00 | 0.00 | 0.00 | 54 | 1017.9 |
| 20260906051213 | 23 | 271 | 0.0 | 3.2 | 0.00 | 0.00 | 0.00 | 54 | 1017.9 |
| 20260906050708 | 23 | 347 | 3.2 | 4.8 | 0.00 | 0.00 | 0.00 | 53 | 1017.7 |
| 20260906050203 | 23 | 357 | 3.2 | 4.8 | 0.00 | 0.00 | 0.00 | 53 | 1018.2 |
| 20260906045701 | 23 | 358 | 1.6 | 1.6 | 0.00 | 0.00 | 0.00 | 53 | 1017.7 |
| 20260906045157 | 23 | 312 | 3.2 | 4.8 | 0.00 | 0.00 | 0.00 | 54 | 1017.6 |
| 20260906044653 | 23 | 324 | 3.2 | 4.8 | 0.00 | 0.00 | 0.00 | 53 | 1017.6 |
| 20260906044148 | 23 | 336 | 0.0 | 3.2 | 0.00 | 0.00 | 0.00 | 52 | 1017.5 |
| 20260906043644 | 23 | 16 | 3.2 | 4.8 | 0.00 | 0.00 | 0.00 | 51 | 1017.6 |
| 20260906043140 | 23 | 343 | 4.8 | 6.4 | 0.00 | 0.00 | 0.00 | 51 | 1017.5 |
| 20260906042639 | 23 | 355 | 3.2 | 6.4 | 0.00 | 0.00 | 0.00 | 52 | 1017.5 |
| 20260906042133 | 23 | 22 | 4.8 | 4.8 | 0.00 | 0.00 | 0.00 | 49 | 1017.6 |
| 20260906041629 | 23 | 355 | 0.0 | 1.6 | 0.00 | 0.00 | 0.00 | 49 | 1017.5 |
| 20260906041124 | 24 | 286 | 1.6 | 3.2 | 0.00 | 0.00 | 0.00 | 48 | 1017.2 |
| 20260906040620 | 25 | 301 | 3.2 | 3.2 | 0.00 | 0.00 | 0.00 | 48 | 1017.3 |
| 20260906040115 | 25 | 288 | 3.2 | 3.2 | 0.00 | 0.00 | 0.00 | 47 | 1017.1 |
| 20260906035610 | 25 | 287 | 3.2 | 3.2 | 0.00 | 0.00 | 0.00 | 47 | 1017.2 |
| 20260906035106 | 25 | 343 | 0.0 | 0.0 | 0.00 | 0.00 | 0.00 | 48 | 1017.2 |
| 20260906034605 | 26 | 5 | 1.6 | 1.6 | 0.00 | 0.00 | 0.00 | 47 | 1017.6 |
| 20260906034101 | 26 | 82 | 0.0 | 1.6 | 0.00 | 0.00 | 0.00 | 45 | 1017.2 |
| 20260906033556 | 27 | 116 | 3.2 | 4.8 | 0.00 | 0.00 | 0.00 | 44 | 1017.5 |
| 20260906033051 | 26 | 108 | 4.8 | 4.8 | 0.00 | 0.00 | 0.00 | 45 | 1017.3 |
| 20260906032548 | 26 | 29 | 0.0 | 1.6 | 0.00 | 0.00 | 0.00 | 46 | 1017.6 |
| 20260906032047 | 26 | 29 | 0.0 | 0.0 | 0.00 | 0.00 | 0.00 | 46 | 1017.3 |
| 20260906031543 | 26 | 348 | 0.0 | 0.0 | 0.00 | 0.00 | 0.00 | 44 | 1017.5 |
| 20260906031038 | 26 | 16 | 0.0 | 1.6 | 0.00 | 0.00 | 0.00 | 42 | 1017.3 |
| 20260906030538 | 26 | 12 | 0.0 | 0.0 | 0.00 | 0.00 | 0.00 | 42 | 1017.0 |
| 20260906030038 | 26 | 359 | 0.0 | 1.6 | 0.00 | 0.00 | 0.00 | 41 | 1016.9 |
| 20260906025538 | 26 | 311 | 0.0 | 0.0 | 0.00 | 0.00 | 0.00 | 42 | 1016.8 |
| 20260906025036 | 25 | 259 | 0.0 | 1.6 | 0.00 | 0.00 | 0.00 | 41 | 1016.9 |
| 20260906024531 | 25 | 33 | 0.0 | 3.2 | 0.00 | 0.00 | 0.00 | 40 | 1016.5 |
| 20260906024031 | 26 | 280 | 0.0 | 1.6 | 0.00 | 0.00 | 0.00 | 39 | 1016.5 |
| 20260906023527 | 26 | 295 | 1.6 | 3.2 | 0.00 | 0.00 | 0.00 | 38 | 1016.4 |
| 20260906023022 | 27 | 277 | 1.6 | 3.2 | 0.00 | 0.00 | 0.00 | 38 | 1016.1 |
| 20260906022517 | 27 | 261 | 1.6 | 3.2 | 0.00 | 0.00 | 0.00 | 37 | 1016.2 |
| 20260906022013 | 27 | 174 | 1.6 | 3.2 | 0.00 | 0.00 | 0.00 | 36 | 1016.3 |
| 20260906021509 | 27 | 248 | 0.0 | 1.6 | 0.00 | 0.00 | 0.00 | 38 | 1015.8 |
| 20260906021008 | 28 | 282 | 0.0 | 1.6 | 0.00 | 0.00 | 0.00 | 36 | 1015.9 |
| 20260906020507 | 28 | 282 | 1.6 | 3.2 | 0.00 | 0.00 | 0.00 | 35 | 1015.8 |
| 20260906020007 | 28 | 265 | 1.6 | 3.2 | 0.00 | 0.00 | 0.00 | 35 | 1015.5 |
| 20260906015507 | 28 | 121 | 0.0 | 0.0 | 0.00 | 0.00 | 0.00 | 36 | 1015.7 |
| 20260906015006 | 27 | 227 | 0.0 | 1.6 | 0.00 | 0.00 | 0.00 | 36 | 1015.5 |
| 20260906014501 | 28 | 279 | 1.6 | 1.6 | 0.00 | 0.00 | 0.00 | 36 | 1015.5 |
| 20260906013957 | 29 | 287 | 1.6 | 1.6 | 0.00 | 0.00 | 0.00 | 35 | 1015.4 |
| 20260906013452 | 30 | 285 | 3.2 | 3.2 | 0.00 | 0.00 | 0.00 | 35 | 1015.5 |
| 20260906012949 | 30 | 288 | 1.6 | 1.6 | 0.00 | 0.00 | 0.00 | 35 | 1015.4 |
| 20260906012449 | 30 | 263 | 0.0 | 1.6 | 0.00 | 0.00 | 0.00 | 35 | 1015.5 |
| 20260906011948 | 30 | 273 | 0.0 | 1.6 | 0.00 | 0.00 | 0.00 | 35 | 1015.4 |
| 20260906011444 | 30 | 13 | 0.0 | 0.0 | 0.00 | 0.00 | 0.00 | 35 | 1015.5 |
| 20260906010939 | 31 | 13 | 0.0 | 0.0 | 0.00 | 0.00 | 0.00 | 34 | 1015.6 |
| 20260906010434 | 32 | 14 | 0.0 | 1.6 | 0.00 | 0.00 | 0.00 | 32 | 1015.4 |
| 20260906005930 | 32 | 68 | 0.0 | 0.0 | 0.00 | 0.00 | 0.00 | 32 | 1015.6 |
| 20260906005430 | 32 | 72 | 0.0 | 1.6 | 0.00 | 0.00 | 0.00 | 31 | 1015.6 |
| 20260906004928 | 33 | 62 | 1.6 | 3.2 | 0.00 | 0.00 | 0.00 | 31 | 1015.4 |
| 20260906004422 | 33 | 73 | 3.2 | 4.8 | 0.00 | 0.00 | 0.00 | 30 | 1015.6 |
| 20260906003918 | 35 | 125 | 0.0 | 1.6 | 0.00 | 0.00 | 0.00 | 28 | 1015.6 |
| 20260906003413 | 35 | 103 | 0.0 | 1.6 | 0.00 | 0.00 | 0.00 | 27 | 1015.4 |
| 20260906002909 | 35 | 275 | 0.0 | 1.6 | 0.00 | 0.00 | 0.00 | 27 | 1015.4 |
| 20260906002408 | 35 | 264 | 0.0 | 1.6 | 0.00 | 0.00 | 0.00 | 27 | 1015.2 |
| 20260906001904 | 35 | 230 | 0.0 | 1.6 | 0.00 | 0.00 | 0.00 | 27 | 1015.2 |
| 20260906001400 | 34 | 202 | 3.2 | 6.4 | 0.00 | 0.00 | 0.00 | 27 | 1015.4 |
| 20260906000900 | 34 | 202 | 3.2 | 6.4 | 0.00 | 0.00 | 0.00 | 29 | 1015.4 |
| 20260906000400 | 33 | 109 | 3.2 | 6.4 | 0.00 | 0.00 | 0.00 | 30 | 1015.5 |
| 20260905235855 | 32 | 96 | 1.6 | 4.8 | 0.00 | 0.00 | 0.00 | 31 | 1015.6 |
| 20260905235349 | 32 | 179 | 3.2 | 4.8 | 0.00 | 0.00 | 0.00 | 31 | 1015.4 |
| 20260905234844 | 32 | 206 | 6.4 | 12.9 | 0.00 | 0.00 | 0.00 | 31 | 1015.6 |
| 20260905234339 | 32 | 265 | 6.4 | 16.1 | 0.00 | 0.00 | 0.00 | 31 | 1015.1 |
| 20260905233835 | 33 | 187 | 11.3 | 20.9 | 0.00 | 0.00 | 0.00 | 29 | 1015.5 |
| 20260905233329 | 34 | 101 | 6.4 | 11.3 | 0.00 | 0.00 | 0.00 | 27 | 1015.4 |
| 20260905232828 | 34 | 144 | 9.7 | 11.3 | 0.00 | 0.00 | 0.00 | 27 | 1015.0 |
| 20260905232325 | 34 | 142 | 12.9 | 20.9 | 0.00 | 0.00 | 0.00 | 26 | 1015.1 |
| 20260905231820 | 35 | 144 | 11.3 | 17.7 | 0.00 | 0.00 | 0.00 | 26 | 1015.2 |
| 20260905231315 | 35 | 150 | 9.7 | 17.7 | 0.00 | 0.00 | 0.00 | 26 | 1015.0 |
| 20260905230812 | 35 | 31 | 6.4 | 12.9 | 0.00 | 0.00 | 0.00 | 25 | 1015.1 |
| 20260905230309 | 35 | 131 | 14.5 | 17.7 | 0.00 | 0.00 | 0.00 | 25 | 1015.1 |
| 20260905225809 | 35 | 79 | 12.9 | 17.7 | 0.00 | 0.00 | 0.00 | 26 | 1015.1 |
| 20260905225306 | 35 | 131 | 3.2 | 9.7 | 0.00 | 0.00 | 0.00 | 25 | 1015.2 |
| 20260905224804 | 35 | 81 | 6.4 | 6.4 | 0.00 | 0.00 | 0.00 | 26 | 1015.1 |
| 20260905224259 | 35 | 142 | 0.0 | 0.0 | 0.00 | 0.00 | 0.00 | 27 | 1015.2 |
| 20260905223754 | 35 | 123 | 6.4 | 9.7 | 0.00 | 0.00 | 0.00 | 26 | 1015.2 |
| 20260905223252 | 35 | 141 | 6.4 | 11.3 | 0.00 | 0.00 | 0.00 | 26 | 1015.2 |
| 20260905222747 | 35 | 55 | 4.8 | 9.7 | 0.00 | 0.00 | 0.00 | 26 | 1015.1 |
| 20260905222246 | 35 | 112 | 0.0 | 6.4 | 0.00 | 0.00 | 0.00 | 26 | 1015.2 |
| 20260905221742 | 35 | 96 | 9.7 | 16.1 | 0.00 | 0.00 | 0.00 | 26 | 1015.4 |
| 20260905221239 | 35 | 57 | 11.3 | 14.5 | 0.00 | 0.00 | 0.00 | 26 | 1015.4 |
| 20260905220734 | 35 | 71 | 14.5 | 17.7 | 0.00 | 0.00 | 0.00 | 26 | 1015.4 |
| 20260905220231 | 35 | 85 | 14.5 | 16.1 | 0.00 | 0.00 | 0.00 | 26 | 1015.2 |
| 20260905215730 | 35 | 66 | 0.0 | 3.2 | 0.00 | 0.00 | 0.00 | 26 | 1015.2 |
| 20260905215226 | 35 | 56 | 1.6 | 6.4 | 0.00 | 0.00 | 0.00 | 26 | 1015.4 |
| 20260905214721 | 35 | 92 | 11.3 | 14.5 | 0.00 | 0.00 | 0.00 | 26 | 1015.5 |
| 20260905214217 | 36 | 72 | 6.4 | 11.3 | 0.00 | 0.00 | 0.00 | 25 | 1015.4 |
| 20260905213712 | 36 | 51 | 4.8 | 11.3 | 0.00 | 0.00 | 0.00 | 25 | 1015.4 |
| 20260905213208 | 36 | 183 | 1.6 | 3.2 | 0.00 | 0.00 | 0.00 | 25 | 1015.5 |